Terminal Aerodrome Forecast
Issued by NWS

Home | Current Version | Previous Version | Text Only | Print | Product List | Glossary On
Versions: 1 2 3 4 5 6 7 8 9 10 11 12 13 14 15 16 17 18 19 20 21 22 23 24 25 26 27 28 29 30 31 32 33 34 35
000
FTUS45 KGJT 070011 AAA
TAFRIL
TAF AMD
KRIL 070011Z 0700/0724 27008KT P6SM -SHRA FEW025 BKN045 OVC060
      TEMPO 0700/0702 VRB15G25KT -TSRA BKN025 OVC045CB
     FM070200 18004KT P6SM VCSH SCT050 BKN100
      TEMPO 0702/0706 -SHRA BKN050
     FM071700 24008KT P6SM VCTS SCT080CB BKN110=

USA.gov is the U.S. government's official web portal to all federal, state and local government web resources and services.